sensor_id;sensor_type;location;lat;lon;timestamp;pressure;altitude;pressure_sealevel;temperature;humidity
72438;BME280;60444;43.534;-5.674;2023-02-01T00:01:43;103413.03;;;7.69;100.00
72438;BME280;60444;43.534;-5.674;2023-02-01T00:04:09;103408.53;;;7.69;100.00
72438;BME280;60444;43.534;-5.674;2023-02-01T00:06:34;103398.66;;;7.70;100.00
72438;BME280;60444;43.534;-5.674;2023-02-01T00:09:00;103383.38;;;7.66;100.00
72438;BME280;60444;43.534;-5.674;2023-02-01T00:11:25;103402.28;;;7.79;100.00
72438;BME280;60444;43.534;-5.674;2023-02-01T00:13:51;103388.78;;;7.76;100.00
72438;BME280;60444;43.534;-5.674;2023-02-01T00:16:22;103395.09;;;7.71;100.00
72438;BME280;60444;43.534;-5.674;2023-02-01T00:18:50;103398.69;;;7.79;100.00
72438;BME280;60444;43.534;-5.674;2023-02-01T00:21:20;103385.22;;;7.79;100.00
72438;BME280;60444;43.534;-5.674;2023-02-01T00:23:46;103380.72;;;7.72;100.00
72438;BME280;60444;43.534;-5.674;2023-02-01T00:26:20;103384.34;;;7.81;100.00
72438;BME280;60444;43.534;-5.674;2023-02-01T00:28:47;103387.94;;;7.83;100.00
72438;BME280;60444;43.534;-5.674;2023-02-01T00:31:14;103387.94;;;7.85;100.00
72438;BME280;60444;43.534;-5.674;2023-02-01T00:33:40;103383.44;;;7.82;100.00
72438;BME280;60444;43.534;-5.674;2023-02-01T00:36:07;103384.34;;;7.86;100.00
72438;BME280;60444;43.534;-5.674;2023-02-01T00:38:36;103373.56;;;7.86;100.00
72438;BME280;60444;43.534;-5.674;2023-02-01T00:41:17;103360.97;;;7.79;100.00
72438;BME280;60444;43.534;-5.674;2023-02-01T00:43:43;103358.25;;;7.71;100.00
72438;BME280;60444;43.534;-5.674;2023-02-01T00:46:10;103362.75;;;7.77;100.00
72438;BME280;60444;43.534;-5.674;2023-02-01T00:48:36;103378.09;;;7.91;100.00
72438;BME280;60444;43.534;-5.674;2023-02-01T00:51:07;103374.44;;;7.82;100.00
72438;BME280;60444;43.534;-5.674;2023-02-01T00:53:34;103373.56;;;7.81;100.00
72438;BME280;60444;43.534;-5.674;2023-02-01T00:56:00;103363.72;;;7.83;100.00
72438;BME280;60444;43.534;-5.674;2023-02-01T00:58:26;103366.41;;;7.88;100.00
72438;BME280;60444;43.534;-5.674;2023-02-01T01:03:33;103352.91;;;7.76;100.00
72438;BME280;60444;43.534;-5.674;2023-02-01T01:06:00;103371.75;;;7.80;100.00
72438;BME280;60444;43.534;-5.674;2023-02-01T01:08:26;103341.22;;;7.72;100.00
72438;BME280;60444;43.534;-5.674;2023-02-01T01:10:52;103354.66;;;7.69;100.00
72438;BME280;60444;43.534;-5.674;2023-02-01T01:13:18;103364.59;;;7.78;100.00
72438;BME280;60444;43.534;-5.674;2023-02-01T01:15:44;103367.25;;;7.76;100.00
72438;BME280;60444;43.534;-5.674;2023-02-01T01:18:10;103364.53;;;7.73;100.00
72438;BME280;60444;43.534;-5.674;2023-02-01T01:20:38;103360.94;;;7.71;100.00
72438;BME280;60444;43.534;-5.674;2023-02-01T01:23:04;103351.09;;;7.67;100.00
72438;BME280;60444;43.534;-5.674;2023-02-01T01:25:30;103343.00;;;7.67;100.00
72438;BME280;60444;43.534;-5.674;2023-02-01T01:27:56;103350.16;;;7.68;100.00
72438;BME280;60444;43.534;-5.674;2023-02-01T01:30:22;103359.16;;;7.67;100.00
72438;BME280;60444;43.534;-5.674;2023-02-01T01:32:47;103341.16;;;7.57;100.00
72438;BME280;60444;43.534;-5.674;2023-02-01T01:35:13;103363.63;;;7.71;100.00
72438;BME280;60444;43.534;-5.674;2023-02-01T01:37:38;103340.28;;;7.64;100.00
72438;BME280;60444;43.534;-5.674;2023-02-01T01:40:05;103354.69;;;7.71;100.00
72438;BME280;60444;43.534;-5.674;2023-02-01T01:42:37;103360.97;;;7.74;100.00
72438;BME280;60444;43.534;-5.674;2023-02-01T01:47:46;103355.56;;;7.71;100.00
72438;BME280;60444;43.534;-5.674;2023-02-01T01:50:15;103358.25;;;7.70;100.00
72438;BME280;60444;43.534;-5.674;2023-02-01T01:52:44;103357.38;;;7.75;100.00
72438;BME280;60444;43.534;-5.674;2023-02-01T01:55:13;103342.97;;;7.66;100.00
72438;BME280;60444;43.534;-5.674;2023-02-01T01:57:42;103334.84;;;7.54;100.00
72438;BME280;60444;43.534;-5.674;2023-02-01T02:00:15;103353.75;;;7.63;100.00
72438;BME280;60444;43.534;-5.674;2023-02-01T02:02:44;103362.75;;;7.75;100.00
72438;BME280;60444;43.534;-5.674;2023-02-01T02:05:11;103338.47;;;7.53;100.00
72438;BME280;60444;43.534;-5.674;2023-02-01T02:07:40;103360.97;;;7.74;100.00
72438;BME280;60444;43.534;-5.674;2023-02-01T02:10:09;103332.19;;;7.58;100.00
72438;BME280;60444;43.534;-5.674;2023-02-01T02:12:42;103356.47;;;7.70;100.00
72438;BME280;60444;43.534;-5.674;2023-02-01T02:15:09;103355.56;;;7.71;100.00
72438;BME280;60444;43.534;-5.674;2023-02-01T02:28:29;103367.28;;;7.79;100.00
72438;BME280;60444;43.534;-5.674;2023-02-01T02:42:52;103362.78;;;7.80;100.00
72438;BME280;60444;43.534;-5.674;2023-02-01T02:46:20;103351.06;;;7.76;100.00
72438;BME280;60444;43.534;-5.674;2023-02-01T02:49:19;103358.25;;;7.73;100.00
72438;BME280;60444;43.534;-5.674;2023-02-01T02:51:53;103342.09;;;7.65;100.00
72438;BME280;60444;43.534;-5.674;2023-02-01T02:54:43;103342.97;;;7.66;100.00
72438;BME280;60444;43.534;-5.674;2023-02-01T02:57:22;103345.72;;;7.79;100.00
72438;BME280;60444;43.534;-5.674;2023-02-01T03:00:11;103337.59;;;7.73;100.00
72438;BME280;60444;43.534;-5.674;2023-02-01T03:02:56;103348.41;;;7.82;100.00
72438;BME280;60444;43.534;-5.674;2023-02-01T03:05:45;103336.75;;;7.83;100.00
72438;BME280;60444;43.534;-5.674;2023-02-01T03:08:16;103336.75;;;7.88;100.00
72438;BME280;60444;43.534;-5.674;2023-02-01T03:10:48;103334.94;;;7.81;100.00
72438;BME280;60444;43.534;-5.674;2023-02-01T03:16:06;103344.84;;;7.86;100.00
72438;BME280;60444;43.534;-5.674;2023-02-01T03:18:36;103337.63;;;7.82;100.00
72438;BME280;60444;43.534;-5.674;2023-02-01T03:21:14;103324.16;;;7.72;100.00
72438;BME280;60444;43.534;-5.674;2023-02-01T03:23:42;103324.16;;;7.72;100.00
72438;BME280;60444;43.534;-5.674;2023-02-01T03:26:12;103337.59;;;7.76;100.00
72438;BME280;60444;43.534;-5.674;2023-02-01T03:28:43;103338.56;;;7.83;100.00
72438;BME280;60444;43.534;-5.674;2023-02-01T03:31:13;103327.78;;;7.81;100.00
72438;BME280;60444;43.534;-5.674;2023-02-01T03:33:39;103309.78;;;7.68;100.00
72438;BME280;60444;43.534;-5.674;2023-02-01T03:44:12;103336.72;;;7.74;100.00
72438;BME280;60444;43.534;-5.674;2023-02-01T03:46:59;103318.75;;;7.70;100.00
72438;BME280;60444;43.534;-5.674;2023-02-01T03:49:41;103307.09;;;7.74;100.00
72438;BME280;60444;43.534;-5.674;2023-02-01T03:52:16;103313.38;;;7.73;100.00
72438;BME280;60444;43.534;-5.674;2023-02-01T03:54:44;103322.34;;;7.77;100.00
72438;BME280;60444;43.534;-5.674;2023-02-01T03:57:14;103317.88;;;7.77;100.00
72438;BME280;60444;43.534;-5.674;2023-02-01T03:59:44;103324.16;;;7.81;100.00
72438;BME280;60444;43.534;-5.674;2023-02-01T04:02:10;103318.75;;;7.75;100.00
72438;BME280;60444;43.534;-5.674;2023-02-01T04:04:36;103307.06;;;7.71;100.00
72438;BME280;60444;43.534;-5.674;2023-02-01T04:07:03;103301.69;;;7.67;100.00
72438;BME280;60444;43.534;-5.674;2023-02-01T04:09:29;103330.44;;;7.75;100.00
72438;BME280;60444;43.534;-5.674;2023-02-01T04:11:54;103325.97;;;7.77;100.00
72438;BME280;60444;43.534;-5.674;2023-02-01T04:14:20;103303.47;;;7.66;100.00
72438;BME280;60444;43.534;-5.674;2023-02-01T04:16:45;103320.53;;;7.71;100.00
72438;BME280;60444;43.534;-5.674;2023-02-01T04:19:11;103313.38;;;7.75;100.00
72438;BME280;60444;43.534;-5.674;2023-02-01T04:21:38;103310.69;;;7.69;100.00
72438;BME280;60444;43.534;-5.674;2023-02-01T04:24:04;103309.75;;;7.71;100.00
72438;BME280;60444;43.534;-5.674;2023-02-01T04:26:30;103302.56;;;7.63;100.00
72438;BME280;60444;43.534;-5.674;2023-02-01T04:28:56;103315.16;;;7.71;100.00
72438;BME280;60444;43.534;-5.674;2023-02-01T04:31:21;103285.50;;;7.56;100.00
72438;BME280;60444;43.534;-5.674;2023-02-01T04:33:54;103294.50;;;7.70;100.00
72438;BME280;60444;43.534;-5.674;2023-02-01T04:36:21;103286.41;;;7.61;100.00
72438;BME280;60444;43.534;-5.674;2023-02-01T04:38:48;103303.50;;;7.78;100.00
72438;BME280;60444;43.534;-5.674;2023-02-01T04:41:14;103285.50;;;7.59;100.00
72438;BME280;60444;43.534;-5.674;2023-02-01T04:43:45;103292.69;;;7.63;100.00
72438;BME280;60444;43.534;-5.674;2023-02-01T04:46:11;103266.66;;;7.56;100.00
72438;BME280;60444;43.534;-5.674;2023-02-01T04:48:36;103288.22;;;7.65;100.00
72438;BME280;60444;43.534;-5.674;2023-02-01T04:51:02;103271.16;;;7.63;100.00
72438;BME280;60444;43.534;-5.674;2023-02-01T04:53:27;103298.09;;;7.69;100.00
72438;BME280;60444;43.534;-5.674;2023-02-01T04:55:55;103299.91;;;7.75;100.00
72438;BME280;60444;43.534;-5.674;2023-02-01T04:58:21;103294.50;;;7.70;100.00
72438;BME280;60444;43.534;-5.674;2023-02-01T05:00:46;103277.44;;;7.59;100.00
72438;BME280;60444;43.534;-5.674;2023-02-01T05:03:12;103283.72;;;7.61;100.00
72438;BME280;60444;43.534;-5.674;2023-02-01T05:05:38;103284.63;;;7.68;100.00
72438;BME280;60444;43.534;-5.674;2023-02-01T05:08:03;103285.50;;;7.64;100.00
72438;BME280;60444;43.534;-5.674;2023-02-01T05:10:29;103282.81;;;7.64;100.00
72438;BME280;60444;43.534;-5.674;2023-02-01T05:12:54;103293.59;;;7.65;100.00
72438;BME280;60444;43.534;-5.674;2023-02-01T05:15:38;103297.22;;;7.72;100.00
72438;BME280;60444;43.534;-5.674;2023-02-01T05:18:04;103281.03;;;7.61;100.00
72438;BME280;60444;43.534;-5.674;2023-02-01T05:20:29;103289.09;;;7.63;100.00
72438;BME280;60444;43.534;-5.674;2023-02-01T05:22:55;103277.44;;;7.58;100.00
72438;BME280;60444;43.534;-5.674;2023-02-01T05:25:20;103301.72;;;7.76;100.00
72438;BME280;60444;43.534;-5.674;2023-02-01T05:27:46;103289.09;;;7.64;100.00
72438;BME280;60444;43.534;-5.674;2023-02-01T05:30:11;103291.78;;;7.61;100.00
72438;BME280;60444;43.534;-5.674;2023-02-01T05:32:37;103305.28;;;7.69;100.00
72438;BME280;60444;43.534;-5.674;2023-02-01T05:35:03;103295.41;;;7.72;100.00
72438;BME280;60444;43.534;-5.674;2023-02-01T05:37:28;103294.50;;;7.72;100.00
72438;BME280;60444;43.534;-5.674;2023-02-01T05:39:54;103280.13;;;7.61;100.00
72438;BME280;60444;43.534;-5.674;2023-02-01T05:42:19;103264.81;;;7.45;100.00
72438;BME280;60444;43.534;-5.674;2023-02-01T05:44:45;103289.97;;;7.54;100.00
72438;BME280;60444;43.534;-5.674;2023-02-01T05:47:10;103301.66;;;7.56;100.00
72438;BME280;60444;43.534;-5.674;2023-02-01T05:49:37;103312.44;;;7.58;100.00
72438;BME280;60444;43.534;-5.674;2023-02-01T05:52:03;103307.03;;;7.62;100.00
72438;BME280;60444;43.534;-5.674;2023-02-01T05:54:28;103296.31;;;7.68;100.00
72438;BME280;60444;43.534;-5.674;2023-02-01T05:56:54;103291.81;;;7.69;100.00
72438;BME280;60444;43.534;-5.674;2023-02-01T05:59:19;103314.28;;;7.77;100.00
72438;BME280;60444;43.534;-5.674;2023-02-01T06:01:45;103316.97;;;7.78;100.00
72438;BME280;60444;43.534;-5.674;2023-02-01T06:04:10;103307.06;;;7.71;100.00
72438;BME280;60444;43.534;-5.674;2023-02-01T06:06:36;103287.31;;;7.63;100.00
72438;BME280;60444;43.534;-5.674;2023-02-01T06:09:04;103307.09;;;7.74;100.00
72438;BME280;60444;43.534;-5.674;2023-02-01T06:11:30;103315.19;;;7.77;100.00
72438;BME280;60444;43.534;-5.674;2023-02-01T06:13:56;103317.88;;;7.77;100.00
72438;BME280;60444;43.534;-5.674;2023-02-01T06:16:22;103316.06;;;7.73;100.00
72438;BME280;60444;43.534;-5.674;2023-02-01T06:18:48;103295.41;;;7.63;100.00
72438;BME280;60444;43.534;-5.674;2023-02-01T06:21:14;103307.97;;;7.73;100.00
72438;BME280;60444;43.534;-5.674;2023-02-01T06:23:54;103302.59;;;7.67;100.00
72438;BME280;60444;43.534;-5.674;2023-02-01T06:26:20;103301.69;;;7.68;100.00
72438;BME280;60444;43.534;-5.674;2023-02-01T06:28:46;103319.66;;;7.77;100.00
72438;BME280;60444;43.534;-5.674;2023-02-01T06:31:12;103298.97;;;7.64;100.00
72438;BME280;60444;43.534;-5.674;2023-02-01T06:33:37;103297.16;;;7.57;100.00
72438;BME280;60444;43.534;-5.674;2023-02-01T06:36:05;103312.50;;;7.77;100.00
72438;BME280;60444;43.534;-5.674;2023-02-01T06:38:32;103320.56;;;7.77;100.00
72438;BME280;60444;43.534;-5.674;2023-02-01T06:41:00;103322.34;;;7.72;100.00
72438;BME280;60444;43.534;-5.674;2023-02-01T06:43:27;103326.88;;;7.78;100.00
72438;BME280;60444;43.534;-5.674;2023-02-01T06:45:53;103328.69;;;7.85;100.00
72438;BME280;60444;43.534;-5.674;2023-02-01T06:48:19;103333.16;;;7.83;100.00
72438;BME280;60444;43.534;-5.674;2023-02-01T06:50:44;103311.59;;;7.75;100.00
72438;BME280;60444;43.534;-5.674;2023-02-01T06:53:10;103334.06;;;7.86;100.00
72438;BME280;60444;43.534;-5.674;2023-02-01T06:55:35;103303.50;;;7.71;100.00
72438;BME280;60444;43.534;-5.674;2023-02-01T06:58:01;103324.16;;;7.79;100.00
72438;BME280;60444;43.534;-5.674;2023-02-01T07:00:28;103318.75;;;7.75;100.00
72438;BME280;60444;43.534;-5.674;2023-02-01T07:02:54;103338.56;;;7.80;100.00
72438;BME280;60444;43.534;-5.674;2023-02-01T07:05:20;103320.53;;;7.67;100.00
72438;BME280;60444;43.534;-5.674;2023-02-01T07:07:46;103316.06;;;7.72;100.00
72438;BME280;60444;43.534;-5.674;2023-02-01T07:10:12;103342.13;;;7.80;100.00
72438;BME280;60444;43.534;-5.674;2023-02-01T07:12:38;103319.66;;;7.74;100.00
72438;BME280;60444;43.534;-5.674;2023-02-01T07:15:04;103321.47;;;7.85;100.00
72438;BME280;60444;43.534;-5.674;2023-02-01T07:17:30;103301.66;;;7.64;100.00
72438;BME280;60444;43.534;-5.674;2023-02-01T07:19:56;103339.44;;;7.86;100.00
72438;BME280;60444;43.534;-5.674;2023-02-01T07:22:23;103336.72;;;7.76;100.00
72438;BME280;60444;43.534;-5.674;2023-02-01T07:24:49;103334.03;;;7.82;100.00
72438;BME280;60444;43.534;-5.674;2023-02-01T07:27:14;103309.75;;;7.62;100.00
72438;BME280;60444;43.534;-5.674;2023-02-01T07:29:40;103338.53;;;7.87;100.00
72438;BME280;60444;43.534;-5.674;2023-02-01T07:32:05;103315.19;;;7.77;100.00
72438;BME280;60444;43.534;-5.674;2023-02-01T07:34:31;103327.78;;;7.84;100.00
72438;BME280;60444;43.534;-5.674;2023-02-01T07:36:58;103319.69;;;7.80;100.00
72438;BME280;60444;43.534;-5.674;2023-02-01T07:39:23;103303.50;;;7.72;100.00
72438;BME280;60444;43.534;-5.674;2023-02-01T07:41:49;103325.97;;;7.85;100.00
72438;BME280;60444;43.534;-5.674;2023-02-01T07:44:14;103325.06;;;7.83;100.00
72438;BME280;60444;43.534;-5.674;2023-02-01T07:46:40;103323.25;;;7.82;100.00
72438;BME280;60444;43.534;-5.674;2023-02-01T07:49:05;103317.88;;;7.76;100.00
72438;BME280;60444;43.534;-5.674;2023-02-01T07:51:31;103323.28;;;7.88;100.00
72438;BME280;60444;43.534;-5.674;2023-02-01T07:53:57;103315.22;;;7.83;100.00
72438;BME280;60444;43.534;-5.674;2023-02-01T07:56:23;103322.38;;;7.81;100.00
72438;BME280;60444;43.534;-5.674;2023-02-01T07:58:51;103325.94;;;7.82;100.00
72438;BME280;60444;43.534;-5.674;2023-02-01T08:01:22;103332.25;;;7.82;100.00
72438;BME280;60444;43.534;-5.674;2023-02-01T08:04:00;103307.97;;;7.76;100.00
72438;BME280;60444;43.534;-5.674;2023-02-01T08:06:28;103334.03;;;7.77;100.00
72438;BME280;60444;43.534;-5.674;2023-02-01T08:08:54;103298.09;;;7.63;100.00
72438;BME280;60444;43.534;-5.674;2023-02-01T08:11:20;103311.56;;;7.69;100.00
72438;BME280;60444;43.534;-5.674;2023-02-01T08:13:46;103337.63;;;7.81;100.00
72438;BME280;60444;43.534;-5.674;2023-02-01T08:16:14;103343.03;;;7.84;100.00
72438;BME280;60444;43.534;-5.674;2023-02-01T08:18:40;103338.56;;;7.89;100.00
72438;BME280;60444;43.534;-5.674;2023-02-01T08:21:26;103339.44;;;7.89;100.00
72438;BME280;60444;43.534;-5.674;2023-02-01T08:24:04;103343.03;;;7.85;100.00
72438;BME280;60444;43.534;-5.674;2023-02-01T08:26:31;103348.44;;;7.87;100.00
72438;BME280;60444;43.534;-5.674;2023-02-01T08:28:58;103353.81;;;7.82;100.00
72438;BME280;60444;43.534;-5.674;2023-02-01T08:31:27;103357.44;;;7.90;100.00
72438;BME280;60444;43.534;-5.674;2023-02-01T08:33:55;103353.84;;;7.90;100.00
72438;BME280;60444;43.534;-5.674;2023-02-01T08:36:21;103345.72;;;7.85;100.00
72438;BME280;60444;43.534;-5.674;2023-02-01T08:38:47;103338.56;;;7.81;100.00
72438;BME280;60444;43.534;-5.674;2023-02-01T08:41:15;103343.94;;;7.81;100.00
72438;BME280;60444;43.534;-5.674;2023-02-01T08:43:42;103361.03;;;8.00;100.00
72438;BME280;60444;43.534;-5.674;2023-02-01T08:46:08;103361.06;;;8.04;100.00
72438;BME280;60444;43.534;-5.674;2023-02-01T08:48:34;103356.53;;;8.03;100.00
72438;BME280;60444;43.534;-5.674;2023-02-01T08:51:05;103367.34;;;8.12;100.00
72438;BME280;60444;43.534;-5.674;2023-02-01T08:53:31;103366.47;;;8.15;100.00
72438;BME280;60444;43.534;-5.674;2023-02-01T08:55:57;103351.19;;;8.09;100.00
72438;BME280;60444;43.534;-5.674;2023-02-01T08:58:23;103369.19;;;8.19;100.00
72438;BME280;60444;43.534;-5.674;2023-02-01T09:00:48;103353.00;;;8.13;100.00
72438;BME280;60444;43.534;-5.674;2023-02-01T09:03:15;103364.72;;;8.29;100.00
72438;BME280;60444;43.534;-5.674;2023-02-01T09:05:40;103371.88;;;8.21;100.00
72438;BME280;60444;43.534;-5.674;2023-02-01T09:08:06;103372.81;;;8.30;100.00
72438;BME280;60444;43.534;-5.674;2023-02-01T09:10:34;103367.44;;;8.35;100.00
72438;BME280;60444;43.534;-5.674;2023-02-01T09:13:00;103349.41;;;8.20;100.00
72438;BME280;60444;43.534;-5.674;2023-02-01T09:15:26;103383.63;;;8.33;100.00
72438;BME280;60444;43.534;-5.674;2023-02-01T09:17:51;103370.13;;;8.35;100.00
72438;BME280;60444;43.534;-5.674;2023-02-01T09:20:17;103375.53;;;8.33;100.00
72438;BME280;60444;43.534;-5.674;2023-02-01T09:22:44;103377.31;;;8.30;100.00
72438;BME280;60444;43.534;-5.674;2023-02-01T09:25:09;103376.41;;;8.29;100.00
72438;BME280;60444;43.534;-5.674;2023-02-01T09:27:35;103345.78;;;8.12;100.00
72438;BME280;60444;43.534;-5.674;2023-02-01T09:30:01;103367.41;;;8.27;100.00
72438;BME280;60444;43.534;-5.674;2023-02-01T09:32:26;103363.78;;;8.22;100.00
72438;BME280;60444;43.534;-5.674;2023-02-01T09:34:52;103364.72;;;8.36;100.00
72438;BME280;60444;43.534;-5.674;2023-02-01T09:37:19;103373.72;;;8.37;100.00
72438;BME280;60444;43.534;-5.674;2023-02-01T09:39:44;103374.63;;;8.42;100.00
72438;BME280;60444;43.534;-5.674;2023-02-01T09:47:27;103377.34;;;8.47;100.00
72438;BME280;60444;43.534;-5.674;2023-02-01T09:52:33;103379.13;;;8.60;100.00
72438;BME280;60444;43.534;-5.674;2023-02-01T09:55:04;103395.31;;;8.66;100.00
72438;BME280;60444;43.534;-5.674;2023-02-01T09:57:49;103388.13;;;8.69;100.00
72438;BME280;60444;43.534;-5.674;2023-02-01T10:00:22;103396.19;;;8.81;100.00
72438;BME280;60444;43.534;-5.674;2023-02-01T10:02:51;103396.22;;;8.89;100.00
72438;BME280;60444;43.534;-5.674;2023-02-01T10:05:29;103388.13;;;8.84;100.00
72438;BME280;60444;43.534;-5.674;2023-02-01T10:08:09;103390.81;;;9.02;100.00
72438;BME280;60444;43.534;-5.674;2023-02-01T10:10:41;103388.13;;;9.02;100.00
72438;BME280;60444;43.534;-5.674;2023-02-01T10:13:34;103386.31;;;9.06;100.00
72438;BME280;60444;43.534;-5.674;2023-02-01T10:21:47;103394.34;;;9.30;100.00
72438;BME280;60444;43.534;-5.674;2023-02-01T10:27:21;103395.22;;;9.46;100.00
72438;BME280;60444;43.534;-5.674;2023-02-01T10:29:55;103396.94;;;9.59;100.00
72438;BME280;60444;43.534;-5.674;2023-02-01T10:32:29;103404.13;;;9.69;100.00
72438;BME280;60444;43.534;-5.674;2023-02-01T10:34:58;103390.59;;;9.70;100.00
72438;BME280;60444;43.534;-5.674;2023-02-01T10:37:32;103393.28;;;9.84;100.00
72438;BME280;60444;43.534;-5.674;2023-02-01T10:40:03;103402.25;;;9.86;100.00
72438;BME280;60444;43.534;-5.674;2023-02-01T10:42:36;103381.53;;;9.83;100.00
72438;BME280;60444;43.534;-5.674;2023-02-01T10:45:03;103389.59;;;9.92;100.00
72438;BME280;60444;43.534;-5.674;2023-02-01T10:47:29;103397.69;;;10.09;100.00
72438;BME280;60444;43.534;-5.674;2023-02-01T10:52:39;103406.59;;;10.24;100.00
72438;BME280;60444;43.534;-5.674;2023-02-01T10:55:36;103413.72;;;10.34;100.00
72438;BME280;60444;43.534;-5.674;2023-02-01T10:58:29;103408.25;;;10.43;100.00
72438;BME280;60444;43.534;-5.674;2023-02-01T11:01:00;103402.81;;;10.48;100.00
72438;BME280;60444;43.534;-5.674;2023-02-01T11:06:40;103405.41;;;10.62;100.00
72438;BME280;60444;43.534;-5.674;2023-02-01T11:11:58;103400.88;;;10.68;100.00
72438;BME280;60444;43.534;-5.674;2023-02-01T11:16:52;103393.59;;;10.73;100.00
72438;BME280;60444;43.534;-5.674;2023-02-01T11:19:19;103402.59;;;10.75;100.00
72438;BME280;60444;43.534;-5.674;2023-02-01T11:21:49;103395.38;;;10.73;100.00
72438;BME280;60444;43.534;-5.674;2023-02-01T11:24:25;103396.28;;;10.75;100.00
72438;BME280;60444;43.534;-5.674;2023-02-01T11:26:55;103386.34;;;10.77;100.00
72438;BME280;60444;43.534;-5.674;2023-02-01T11:29:22;103388.16;;;10.78;100.00
72438;BME280;60444;43.534;-5.674;2023-02-01T11:31:57;103362.94;;;10.71;100.00
72438;BME280;60444;43.534;-5.674;2023-02-01T11:34:26;103373.69;;;10.79;100.00
72438;BME280;60444;43.534;-5.674;2023-02-01T11:36:55;103381.78;;;10.80;100.00
72438;BME280;60444;43.534;-5.674;2023-02-01T11:39:33;103367.28;;;10.89;100.00
72438;BME280;60444;43.534;-5.674;2023-02-01T11:42:16;103369.06;;;10.91;100.00
72438;BME280;60444;43.534;-5.674;2023-02-01T11:44:46;103371.69;;;10.99;100.00
72438;BME280;60444;43.534;-5.674;2023-02-01T11:47:39;103373.41;;;11.09;100.00
72438;BME280;60444;43.534;-5.674;2023-02-01T11:50:16;103363.41;;;11.12;100.00
72438;BME280;60444;43.534;-5.674;2023-02-01T12:09:38;103343.41;;;11.25;100.00
72438;BME280;60444;43.534;-5.674;2023-02-01T12:12:22;103332.59;;;11.24;100.00
72438;BME280;60444;43.534;-5.674;2023-02-01T12:31:05;103307.19;;;11.34;100.00
72438;BME280;60444;43.534;-5.674;2023-02-01T12:34:04;103307.28;;;11.28;100.00
72438;BME280;60444;43.534;-5.674;2023-02-01T12:42:20;103299.09;;;11.31;100.00
72438;BME280;60444;43.534;-5.674;2023-02-01T12:45:00;103276.63;;;11.24;100.00
72438;BME280;60444;43.534;-5.674;2023-02-01T12:47:40;103292.63;;;11.41;100.00
72438;BME280;60444;43.534;-5.674;2023-02-01T12:50:31;103289.03;;;11.42;100.00
72438;BME280;60444;43.534;-5.674;2023-02-01T12:53:16;103282.69;;;11.43;100.00
72438;BME280;60444;43.534;-5.674;2023-02-01T12:55:56;103266.50;;;11.38;100.00
72438;BME280;60444;43.534;-5.674;2023-02-01T13:01:11;103272.50;;;11.62;100.00
72438;BME280;60444;43.534;-5.674;2023-02-01T13:06:20;103247.97;;;11.72;100.00
72438;BME280;60444;43.534;-5.674;2023-02-01T13:11:34;103245.94;;;11.86;100.00
72438;BME280;60444;43.534;-5.674;2023-02-01T13:17:11;103242.41;;;11.81;100.00
72438;BME280;60444;43.534;-5.674;2023-02-01T13:20:03;103243.19;;;11.91;100.00
72438;BME280;60444;43.534;-5.674;2023-02-01T13:22:37;103240.44;;;11.92;100.00
72438;BME280;60444;43.534;-5.674;2023-02-01T13:25:14;103213.47;;;11.83;100.00
72438;BME280;60444;43.534;-5.674;2023-02-01T13:27:41;103230.44;;;11.96;100.00
72438;BME280;60444;43.534;-5.674;2023-02-01T13:30:19;103219.56;;;11.97;100.00
72438;BME280;60444;43.534;-5.674;2023-02-01T13:33:05;103228.47;;;12.05;100.00
72438;BME280;60444;43.534;-5.674;2023-02-01T13:43:44;103212.03;;;12.14;100.00
72438;BME280;60444;43.534;-5.674;2023-02-01T13:46:12;103198.56;;;12.08;100.00
72438;BME280;60444;43.534;-5.674;2023-02-01T13:48:49;103203.22;;;12.02;100.00
72438;BME280;60444;43.534;-5.674;2023-02-01T13:51:34;103216.81;;;12.00;100.00
72438;BME280;60444;43.534;-5.674;2023-02-01T13:54:00;103211.47;;;11.94;100.00
72438;BME280;60444;43.534;-5.674;2023-02-01T13:56:27;103191.81;;;11.80;100.00
72438;BME280;60444;43.534;-5.674;2023-02-01T13:58:52;103207.88;;;11.92;100.00
72438;BME280;60444;43.534;-5.674;2023-02-01T14:03:47;103214.38;;;11.81;100.00
72438;BME280;60444;43.534;-5.674;2023-02-01T14:06:34;103207.31;;;11.72;100.00
72438;BME280;60444;43.534;-5.674;2023-02-01T14:11:43;103218.28;;;11.62;100.00
72438;BME280;60444;43.534;-5.674;2023-02-01T14:16:40;103202.38;;;11.37;100.00
72438;BME280;60444;43.534;-5.674;2023-02-01T14:19:20;103225.78;;;11.43;100.00
72438;BME280;60444;43.534;-5.674;2023-02-01T14:21:58;103206.97;;;11.31;100.00
72438;BME280;60444;43.534;-5.674;2023-02-01T14:24:36;103190.97;;;11.13;100.00
72438;BME280;60444;43.534;-5.674;2023-02-01T14:27:29;103216.03;;;11.28;100.00
72438;BME280;60444;43.534;-5.674;2023-02-01T14:30:02;103194.41;;;11.25;100.00
72438;BME280;60444;43.534;-5.674;2023-02-01T14:32:39;103212.47;;;11.26;100.00
72438;BME280;60444;43.534;-5.674;2023-02-01T14:35:15;103207.88;;;11.31;100.00
72438;BME280;60444;43.534;-5.674;2023-02-01T14:37:43;103212.44;;;11.28;100.00
72438;BME280;60444;43.534;-5.674;2023-02-01T14:50:25;103196.22;;;11.26;100.00
72438;BME280;60444;43.534;-5.674;2023-02-01T14:56:00;103192.47;;;11.35;100.00
72438;BME280;60444;43.534;-5.674;2023-02-01T15:01:28;103186.81;;;11.52;100.00
72438;BME280;60444;43.534;-5.674;2023-02-01T15:07:04;103197.53;;;11.61;100.00
72438;BME280;60444;43.534;-5.674;2023-02-01T15:09:34;103200.16;;;11.67;100.00
72438;BME280;60444;43.534;-5.674;2023-02-01T15:12:05;103197.41;;;11.68;100.00
72438;BME280;60444;43.534;-5.674;2023-02-01T15:17:33;103202.84;;;11.68;100.00
72438;BME280;60444;43.534;-5.674;2023-02-01T15:20:11;103197.34;;;11.74;100.00
72438;BME280;60444;43.534;-5.674;2023-02-01T15:22:37;103184.66;;;11.76;100.00
72438;BME280;60444;43.534;-5.674;2023-02-01T15:25:03;103183.75;;;11.76;100.00
72438;BME280;60444;43.534;-5.674;2023-02-01T15:27:30;103175.81;;;11.62;100.00